sensor_id;sensor_type;location;lat;lon;timestamp;temperature;humidity
32594;DHT22;19018;49.046;9.140;2022-09-23T00:04:19;16.40;43.40
32594;DHT22;19018;49.046;9.140;2022-09-23T00:06:44;16.40;43.40
32594;DHT22;19018;49.046;9.140;2022-09-23T00:09:10;16.30;43.40
32594;DHT22;19018;49.046;9.140;2022-09-23T00:11:36;16.30;43.40
32594;DHT22;19018;49.046;9.140;2022-09-23T00:14:02;16.20;43.40
32594;DHT22;19018;49.046;9.140;2022-09-23T00:16:29;16.20;43.40
32594;DHT22;19018;49.046;9.140;2022-09-23T00:18:55;16.20;43.40
32594;DHT22;19018;49.046;9.140;2022-09-23T00:21:21;16.10;43.40
32594;DHT22;19018;49.046;9.140;2022-09-23T00:23:47;16.00;43.40
32594;DHT22;19018;49.046;9.140;2022-09-23T00:26:14;16.10;43.40
32594;DHT22;19018;49.046;9.140;2022-09-23T00:28:40;16.00;43.40
32594;DHT22;19018;49.046;9.140;2022-09-23T00:31:12;16.00;43.40
32594;DHT22;19018;49.046;9.140;2022-09-23T00:33:38;16.00;43.40
32594;DHT22;19018;49.046;9.140;2022-09-23T00:36:08;15.90;43.40
32594;DHT22;19018;49.046;9.140;2022-09-23T00:38:40;15.90;43.40
32594;DHT22;19018;49.046;9.140;2022-09-23T00:41:05;15.80;43.40
32594;DHT22;19018;49.046;9.140;2022-09-23T00:43:35;15.80;43.40
32594;DHT22;19018;49.046;9.140;2022-09-23T00:46:01;15.70;43.40
32594;DHT22;19018;49.046;9.140;2022-09-23T00:48:27;16.00;43.50
32594;DHT22;19018;49.046;9.140;2022-09-23T00:50:52;15.60;43.30
32594;DHT22;19018;49.046;9.140;2022-09-23T00:53:19;15.60;43.30
32594;DHT22;19018;49.046;9.140;2022-09-23T00:55:48;15.60;43.30
32594;DHT22;19018;49.046;9.140;2022-09-23T01:00:40;15.50;43.30
32594;DHT22;19018;49.046;9.140;2022-09-23T01:03:07;15.50;43.30
32594;DHT22;19018;49.046;9.140;2022-09-23T01:05:34;15.40;43.30
32594;DHT22;19018;49.046;9.140;2022-09-23T01:08:01;15.30;43.30
32594;DHT22;19018;49.046;9.140;2022-09-23T01:10:28;15.30;43.30
32594;DHT22;19018;49.046;9.140;2022-09-23T01:15:32;15.30;43.30
32594;DHT22;19018;49.046;9.140;2022-09-23T01:21:24;15.10;43.30
32594;DHT22;19018;49.046;9.140;2022-09-23T01:26:00;15.10;43.30
32594;DHT22;19018;49.046;9.140;2022-09-23T01:31:03;15.00;43.30
32594;DHT22;19018;49.046;9.140;2022-09-23T01:33:39;15.00;43.30
32594;DHT22;19018;49.046;9.140;2022-09-23T01:39:02;14.90;43.40
32594;DHT22;19018;49.046;9.140;2022-09-23T01:46:28;14.70;43.40
32594;DHT22;19018;49.046;9.140;2022-09-23T01:48:57;14.70;43.40
32594;DHT22;19018;49.046;9.140;2022-09-23T01:51:30;14.70;43.40
32594;DHT22;19018;49.046;9.140;2022-09-23T01:56:38;14.60;43.40
32594;DHT22;19018;49.046;9.140;2022-09-23T01:59:15;14.50;43.40
32594;DHT22;19018;49.046;9.140;2022-09-23T02:04:31;14.50;43.40
32594;DHT22;19018;49.046;9.140;2022-09-23T02:07:09;14.40;43.40
32594;DHT22;19018;49.046;9.140;2022-09-23T02:09:43;14.40;43.50
32594;DHT22;19018;49.046;9.140;2022-09-23T02:12:12;14.40;43.50
32594;DHT22;19018;49.046;9.140;2022-09-23T02:17:08;14.30;43.50
32594;DHT22;19018;49.046;9.140;2022-09-23T02:19:45;14.30;43.50
32594;DHT22;19018;49.046;9.140;2022-09-23T02:24:38;14.20;43.50
32594;DHT22;19018;49.046;9.140;2022-09-23T02:29:52;14.10;43.50
32594;DHT22;19018;49.046;9.140;2022-09-23T02:32:30;14.10;43.50
32594;DHT22;19018;49.046;9.140;2022-09-23T02:37:46;14.00;43.50
32594;DHT22;19018;49.046;9.140;2022-09-23T02:45:10;13.90;43.50
32594;DHT22;19018;49.046;9.140;2022-09-23T02:47:35;13.90;43.60
32594;DHT22;19018;49.046;9.140;2022-09-23T02:50:04;13.90;43.60
32594;DHT22;19018;49.046;9.140;2022-09-23T02:52:29;13.40;43.40
32594;DHT22;19018;49.046;9.140;2022-09-23T02:54:56;13.80;43.60
32594;DHT22;19018;49.046;9.140;2022-09-23T02:57:22;13.80;43.60
32594;DHT22;19018;49.046;9.140;2022-09-23T02:59:48;13.80;43.60
32594;DHT22;19018;49.046;9.140;2022-09-23T03:07:20;13.70;43.70
32594;DHT22;19018;49.046;9.140;2022-09-23T03:09:53;13.60;43.60
32594;DHT22;19018;49.046;9.140;2022-09-23T03:17:33;13.50;43.60
32594;DHT22;19018;49.046;9.140;2022-09-23T03:20:04;13.50;43.70
32594;DHT22;19018;49.046;9.140;2022-09-23T03:22:54;13.50;43.70
32594;DHT22;19018;49.046;9.140;2022-09-23T03:25:18;13.40;43.60
32594;DHT22;19018;49.046;9.140;2022-09-23T03:27:45;13.50;43.70
32594;DHT22;19018;49.046;9.140;2022-09-23T03:30:11;13.40;43.70
32594;DHT22;19018;49.046;9.140;2022-09-23T03:32:37;13.40;43.70
32594;DHT22;19018;49.046;9.140;2022-09-23T03:35:04;13.30;43.70
32594;DHT22;19018;49.046;9.140;2022-09-23T03:38:12;13.30;43.70
32594;DHT22;19018;49.046;9.140;2022-09-23T03:42:44;13.30;43.90
32594;DHT22;19018;49.046;9.140;2022-09-23T03:45:14;13.20;43.80
32594;DHT22;19018;49.046;9.140;2022-09-23T03:47:43;13.30;43.90
32594;DHT22;19018;49.046;9.140;2022-09-23T03:50:08;13.20;43.90
32594;DHT22;19018;49.046;9.140;2022-09-23T03:52:34;13.20;43.90
32594;DHT22;19018;49.046;9.140;2022-09-23T03:54:59;13.20;44.00
32594;DHT22;19018;49.046;9.140;2022-09-23T03:57:25;13.20;44.00
32594;DHT22;19018;49.046;9.140;2022-09-23T03:59:51;13.10;44.00
32594;DHT22;19018;49.046;9.140;2022-09-23T04:02:17;13.20;44.10
32594;DHT22;19018;49.046;9.140;2022-09-23T04:04:43;13.10;44.00
32594;DHT22;19018;49.046;9.140;2022-09-23T04:07:09;13.10;44.00
32594;DHT22;19018;49.046;9.140;2022-09-23T04:09:35;13.10;44.10
32594;DHT22;19018;49.046;9.140;2022-09-23T04:12:00;13.10;44.10
32594;DHT22;19018;49.046;9.140;2022-09-23T04:14:27;13.10;44.10
32594;DHT22;19018;49.046;9.140;2022-09-23T04:16:53;13.10;44.10
32594;DHT22;19018;49.046;9.140;2022-09-23T04:19:19;13.10;44.10
32594;DHT22;19018;49.046;9.140;2022-09-23T04:21:44;13.00;44.10
32594;DHT22;19018;49.046;9.140;2022-09-23T04:24:10;13.00;44.10
32594;DHT22;19018;49.046;9.140;2022-09-23T04:26:36;13.00;44.10
32594;DHT22;19018;49.046;9.140;2022-09-23T04:29:02;13.00;44.20
32594;DHT22;19018;49.046;9.140;2022-09-23T04:31:29;13.00;44.20
32594;DHT22;19018;49.046;9.140;2022-09-23T04:33:55;13.00;44.20
32594;DHT22;19018;49.046;9.140;2022-09-23T04:38:47;13.00;44.20
32594;DHT22;19018;49.046;9.140;2022-09-23T04:41:13;13.00;44.30
32594;DHT22;19018;49.046;9.140;2022-09-23T04:43:39;12.90;44.20
32594;DHT22;19018;49.046;9.140;2022-09-23T04:46:05;12.90;44.30
32594;DHT22;19018;49.046;9.140;2022-09-23T04:48:31;12.90;44.30
32594;DHT22;19018;49.046;9.140;2022-09-23T04:53:28;12.90;44.40
32594;DHT22;19018;49.046;9.140;2022-09-23T04:55:54;12.90;44.40
32594;DHT22;19018;49.046;9.140;2022-09-23T04:58:19;12.90;44.40
32594;DHT22;19018;49.046;9.140;2022-09-23T05:00:47;12.90;44.40
32594;DHT22;19018;49.046;9.140;2022-09-23T05:03:12;12.90;44.40
32594;DHT22;19018;49.046;9.140;2022-09-23T05:08:05;12.90;44.50
32594;DHT22;19018;49.046;9.140;2022-09-23T05:10:30;12.90;44.50
32594;DHT22;19018;49.046;9.140;2022-09-23T05:12:56;12.90;44.60
32594;DHT22;19018;49.046;9.140;2022-09-23T05:15:22;12.90;44.60
32594;DHT22;19018;49.046;9.140;2022-09-23T05:17:48;12.80;44.60
32594;DHT22;19018;49.046;9.140;2022-09-23T05:20:13;12.90;44.60
32594;DHT22;19018;49.046;9.140;2022-09-23T05:22:39;12.90;44.60
32594;DHT22;19018;49.046;9.140;2022-09-23T05:25:05;12.80;44.60
32594;DHT22;19018;49.046;9.140;2022-09-23T05:27:30;12.80;44.60
32594;DHT22;19018;49.046;9.140;2022-09-23T05:29:56;12.90;44.60
32594;DHT22;19018;49.046;9.140;2022-09-23T05:32:21;12.80;44.60
32594;DHT22;19018;49.046;9.140;2022-09-23T05:34:47;12.80;44.60
32594;DHT22;19018;49.046;9.140;2022-09-23T05:37:13;12.80;44.60
32594;DHT22;19018;49.046;9.140;2022-09-23T05:39:38;12.80;44.60
32594;DHT22;19018;49.046;9.140;2022-09-23T05:42:04;12.70;44.60
32594;DHT22;19018;49.046;9.140;2022-09-23T05:44:29;12.80;44.70
32594;DHT22;19018;49.046;9.140;2022-09-23T05:46:55;12.80;44.70
32594;DHT22;19018;49.046;9.140;2022-09-23T05:49:20;12.80;44.70
32594;DHT22;19018;49.046;9.140;2022-09-23T05:51:46;12.80;44.80
32594;DHT22;19018;49.046;9.140;2022-09-23T05:54:12;12.80;44.90
32594;DHT22;19018;49.046;9.140;2022-09-23T05:56:37;12.80;45.00
32594;DHT22;19018;49.046;9.140;2022-09-23T05:59:03;12.80;45.10
32594;DHT22;19018;49.046;9.140;2022-09-23T06:01:30;12.80;45.10
32594;DHT22;19018;49.046;9.140;2022-09-23T06:03:59;12.80;45.10
32594;DHT22;19018;49.046;9.140;2022-09-23T06:06:29;12.80;45.20
32594;DHT22;19018;49.046;9.140;2022-09-23T06:08:55;12.80;45.20
32594;DHT22;19018;49.046;9.140;2022-09-23T06:11:21;12.90;45.30
32594;DHT22;19018;49.046;9.140;2022-09-23T06:13:46;12.90;45.40
32594;DHT22;19018;49.046;9.140;2022-09-23T06:16:13;12.90;45.40
32594;DHT22;19018;49.046;9.140;2022-09-23T06:18:39;12.90;45.40
32594;DHT22;19018;49.046;9.140;2022-09-23T06:21:05;12.90;45.50
32594;DHT22;19018;49.046;9.140;2022-09-23T06:23:31;13.00;45.50
32594;DHT22;19018;49.046;9.140;2022-09-23T06:26:00;13.00;45.50
32594;DHT22;19018;49.046;9.140;2022-09-23T06:28:33;13.00;45.60
32594;DHT22;19018;49.046;9.140;2022-09-23T06:30:59;13.10;45.70
32594;DHT22;19018;49.046;9.140;2022-09-23T06:33:25;13.10;45.70
32594;DHT22;19018;49.046;9.140;2022-09-23T06:35:55;13.10;45.80
32594;DHT22;19018;49.046;9.140;2022-09-23T06:38:21;13.10;46.10
32594;DHT22;19018;49.046;9.140;2022-09-23T06:40:50;13.20;46.20
32594;DHT22;19018;49.046;9.140;2022-09-23T06:43:16;13.20;46.20
32594;DHT22;19018;49.046;9.140;2022-09-23T06:45:42;13.30;46.30
32594;DHT22;19018;49.046;9.140;2022-09-23T06:48:08;13.30;46.40
32594;DHT22;19018;49.046;9.140;2022-09-23T06:50:34;13.30;46.40
32594;DHT22;19018;49.046;9.140;2022-09-23T06:52:59;13.40;46.50
32594;DHT22;19018;49.046;9.140;2022-09-23T06:55:25;13.40;46.50
32594;DHT22;19018;49.046;9.140;2022-09-23T06:57:56;13.50;46.50
32594;DHT22;19018;49.046;9.140;2022-09-23T07:00:22;13.50;46.50
32594;DHT22;19018;49.046;9.140;2022-09-23T07:02:47;13.50;46.50
32594;DHT22;19018;49.046;9.140;2022-09-23T07:05:13;13.60;46.80
32594;DHT22;19018;49.046;9.140;2022-09-23T07:07:44;13.70;46.90
32594;DHT22;19018;49.046;9.140;2022-09-23T07:10:10;13.70;47.00
32594;DHT22;19018;49.046;9.140;2022-09-23T07:12:35;13.80;47.10
32594;DHT22;19018;49.046;9.140;2022-09-23T07:15:01;13.80;47.20
32594;DHT22;19018;49.046;9.140;2022-09-23T07:17:26;13.90;47.50
32594;DHT22;19018;49.046;9.140;2022-09-23T07:19:52;14.00;47.40
32594;DHT22;19018;49.046;9.140;2022-09-23T07:22:22;14.10;47.60
32594;DHT22;19018;49.046;9.140;2022-09-23T07:27:15;14.20;48.50
32594;DHT22;19018;49.046;9.140;2022-09-23T07:29:43;14.30;48.20
32594;DHT22;19018;49.046;9.140;2022-09-23T07:32:09;14.40;48.40
32594;DHT22;19018;49.046;9.140;2022-09-23T07:34:35;14.60;48.80
32594;DHT22;19018;49.046;9.140;2022-09-23T07:37:00;14.50;48.80
32594;DHT22;19018;49.046;9.140;2022-09-23T07:39:27;14.70;49.10
32594;DHT22;19018;49.046;9.140;2022-09-23T07:41:53;14.80;49.00
32594;DHT22;19018;49.046;9.140;2022-09-23T07:44:18;14.90;49.10
32594;DHT22;19018;49.046;9.140;2022-09-23T07:46:46;15.00;48.70
32594;DHT22;19018;49.046;9.140;2022-09-23T07:49:12;15.10;48.60
32594;DHT22;19018;49.046;9.140;2022-09-23T07:51:38;15.20;49.00
32594;DHT22;19018;49.046;9.140;2022-09-23T07:56:31;15.50;48.70
32594;DHT22;19018;49.046;9.140;2022-09-23T07:58:57;15.50;48.50
32594;DHT22;19018;49.046;9.140;2022-09-23T08:01:32;15.60;48.50
32594;DHT22;19018;49.046;9.140;2022-09-23T08:03:58;15.70;48.60
32594;DHT22;19018;49.046;9.140;2022-09-23T08:06:25;15.80;48.60
32594;DHT22;19018;49.046;9.140;2022-09-23T08:08:51;15.90;48.60
32594;DHT22;19018;49.046;9.140;2022-09-23T08:14:08;16.20;49.00
32594;DHT22;19018;49.046;9.140;2022-09-23T08:16:34;16.20;48.90
32594;DHT22;19018;49.046;9.140;2022-09-23T08:19:00;16.30;48.90
32594;DHT22;19018;49.046;9.140;2022-09-23T08:21:26;16.40;49.10
32594;DHT22;19018;49.046;9.140;2022-09-23T08:23:51;16.50;49.10
32594;DHT22;19018;49.046;9.140;2022-09-23T08:26:17;16.60;49.10
32594;DHT22;19018;49.046;9.140;2022-09-23T08:28:43;16.70;49.00
32594;DHT22;19018;49.046;9.140;2022-09-23T08:31:09;16.80;49.10
32594;DHT22;19018;49.046;9.140;2022-09-23T08:33:36;16.90;49.10
32594;DHT22;19018;49.046;9.140;2022-09-23T08:36:02;17.00;49.10
32594;DHT22;19018;49.046;9.140;2022-09-23T08:38:28;17.10;49.30
32594;DHT22;19018;49.046;9.140;2022-09-23T08:43:24;17.30;49.50
32594;DHT22;19018;49.046;9.140;2022-09-23T08:45:51;17.40;49.30
32594;DHT22;19018;49.046;9.140;2022-09-23T08:48:26;17.50;49.30
32594;DHT22;19018;49.046;9.140;2022-09-23T08:50:54;17.70;49.40
32594;DHT22;19018;49.046;9.140;2022-09-23T08:55:49;17.90;49.30
32594;DHT22;19018;49.046;9.140;2022-09-23T08:58:28;18.00;49.30
32594;DHT22;19018;49.046;9.140;2022-09-23T09:03:42;18.20;49.50
32594;DHT22;19018;49.046;9.140;2022-09-23T09:06:11;18.30;49.40
32594;DHT22;19018;49.046;9.140;2022-09-23T09:08:37;18.40;49.40
32594;DHT22;19018;49.046;9.140;2022-09-23T09:11:03;18.50;49.50
32594;DHT22;19018;49.046;9.140;2022-09-23T09:13:31;18.70;49.40
32594;DHT22;19018;49.046;9.140;2022-09-23T09:18:47;18.90;49.40
32594;DHT22;19018;49.046;9.140;2022-09-23T09:21:15;19.00;49.40
32594;DHT22;19018;49.046;9.140;2022-09-23T09:26:15;19.30;49.40
32594;DHT22;19018;49.046;9.140;2022-09-23T09:28:41;19.40;49.40
32594;DHT22;19018;49.046;9.140;2022-09-23T09:33:58;19.60;49.50
32594;DHT22;19018;49.046;9.140;2022-09-23T09:38:50;19.90;49.50
32594;DHT22;19018;49.046;9.140;2022-09-23T09:41:17;20.00;49.60
32594;DHT22;19018;49.046;9.140;2022-09-23T09:46:35;20.30;49.70
32594;DHT22;19018;49.046;9.140;2022-09-23T09:54:22;20.70;50.00
32594;DHT22;19018;49.046;9.140;2022-09-23T09:56:49;20.90;49.90
32594;DHT22;19018;49.046;9.140;2022-09-23T09:59:17;21.00;50.00
32594;DHT22;19018;49.046;9.140;2022-09-23T10:01:45;21.10;50.00
32594;DHT22;19018;49.046;9.140;2022-09-23T10:04:28;21.30;50.10
32594;DHT22;19018;49.046;9.140;2022-09-23T10:07:10;21.40;50.10
32594;DHT22;19018;49.046;9.140;2022-09-23T10:12:12;21.70;50.30
32594;DHT22;19018;49.046;9.140;2022-09-23T10:17:06;21.90;50.50
32594;DHT22;19018;49.046;9.140;2022-09-23T10:19:33;22.10;50.50
32594;DHT22;19018;49.046;9.140;2022-09-23T10:24:28;22.40;50.60
32594;DHT22;19018;49.046;9.140;2022-09-23T10:31:50;22.70;50.40
32594;DHT22;19018;49.046;9.140;2022-09-23T10:34:39;22.90;50.80
32594;DHT22;19018;49.046;9.140;2022-09-23T10:37:13;23.00;50.80
32594;DHT22;19018;49.046;9.140;2022-09-23T10:39:39;23.20;50.90
32594;DHT22;19018;49.046;9.140;2022-09-23T10:45:17;23.50;50.80
32594;DHT22;19018;49.046;9.140;2022-09-23T10:48:23;23.60;50.70
32594;DHT22;19018;49.046;9.140;2022-09-23T10:50:51;23.80;50.70
32594;DHT22;19018;49.046;9.140;2022-09-23T10:53:18;23.90;50.70
32594;DHT22;19018;49.046;9.140;2022-09-23T10:56:22;24.00;50.60
32594;DHT22;19018;49.046;9.140;2022-09-23T11:06:27;24.60;50.50
32594;DHT22;19018;49.046;9.140;2022-09-23T11:12:05;24.90;50.30
32594;DHT22;19018;49.046;9.140;2022-09-23T11:30:00;25.80;49.60
32594;DHT22;19018;49.046;9.140;2022-09-23T11:35:01;25.90;49.70
32594;DHT22;19018;49.046;9.140;2022-09-23T11:37:33;26.00;49.90
32594;DHT22;19018;49.046;9.140;2022-09-23T11:42:39;26.30;50.00
32594;DHT22;19018;49.046;9.140;2022-09-23T11:45:14;26.40;49.80
32594;DHT22;19018;49.046;9.140;2022-09-23T11:47:43;26.60;48.40
32594;DHT22;19018;49.046;9.140;2022-09-23T11:52:45;26.70;48.00
32594;DHT22;19018;49.046;9.140;2022-09-23T11:57:45;26.80;48.20
32594;DHT22;19018;49.046;9.140;2022-09-23T12:00:17;26.90;47.00
32594;DHT22;19018;49.046;9.140;2022-09-23T12:10:23;27.30;48.80
32594;DHT22;19018;49.046;9.140;2022-09-23T12:20:47;27.70;48.00
32594;DHT22;19018;49.046;9.140;2022-09-23T12:28:13;28.00;48.80
32594;DHT22;19018;49.046;9.140;2022-09-23T12:30:39;28.10;48.90
32594;DHT22;19018;49.046;9.140;2022-09-23T12:33:17;28.20;48.80
32594;DHT22;19018;49.046;9.140;2022-09-23T12:35:49;28.30;48.20
32594;DHT22;19018;49.046;9.140;2022-09-23T12:38:22;28.40;48.40
32594;DHT22;19018;49.046;9.140;2022-09-23T12:40:49;28.50;48.70
32594;DHT22;19018;49.046;9.140;2022-09-23T12:43:26;28.50;48.50
32594;DHT22;19018;49.046;9.140;2022-09-23T12:45:54;28.60;48.60
32594;DHT22;19018;49.046;9.140;2022-09-23T12:50:55;28.70;48.20
32594;DHT22;19018;49.046;9.140;2022-09-23T12:55:57;28.80;47.70
32594;DHT22;19018;49.046;9.140;2022-09-23T13:03:51;28.80;47.70
32594;DHT22;19018;49.046;9.140;2022-09-23T13:06:39;28.90;47.50
32594;DHT22;19018;49.046;9.140;2022-09-23T13:09:07;28.90;46.60
32594;DHT22;19018;49.046;9.140;2022-09-23T13:11:34;28.90;46.90
32594;DHT22;19018;49.046;9.140;2022-09-23T13:14:02;28.90;47.30
32594;DHT22;19018;49.046;9.140;2022-09-23T13:16:35;29.00;46.70
32594;DHT22;19018;49.046;9.140;2022-09-23T13:19:07;29.00;47.00
32594;DHT22;19018;49.046;9.140;2022-09-23T13:29:11;29.10;46.70
32594;DHT22;19018;49.046;9.140;2022-09-23T13:31:40;29.10;46.60
32594;DHT22;19018;49.046;9.140;2022-09-23T13:34:06;29.10;46.60
32594;DHT22;19018;49.046;9.140;2022-09-23T13:36:45;29.10;46.50
32594;DHT22;19018;49.046;9.140;2022-09-23T13:39:24;29.10;46.50
32594;DHT22;19018;49.046;9.140;2022-09-23T13:42:00;29.10;45.20
32594;DHT22;19018;49.046;9.140;2022-09-23T13:44:27;29.00;46.20
32594;DHT22;19018;49.046;9.140;2022-09-23T13:46:55;29.10;46.20
32594;DHT22;19018;49.046;9.140;2022-09-23T13:49:23;29.00;46.10
32594;DHT22;19018;49.046;9.140;2022-09-23T13:51:50;29.00;46.10
32594;DHT22;19018;49.046;9.140;2022-09-23T13:54:32;29.00;46.00
32594;DHT22;19018;49.046;9.140;2022-09-23T13:56:59;29.00;45.70
32594;DHT22;19018;49.046;9.140;2022-09-23T14:02:12;28.90;44.30
32594;DHT22;19018;49.046;9.140;2022-09-23T14:07:02;28.80;45.50
32594;DHT22;19018;49.046;9.140;2022-09-23T14:11:55;28.80;45.40
32594;DHT22;19018;49.046;9.140;2022-09-23T14:14:22;28.80;45.30
32594;DHT22;19018;49.046;9.140;2022-09-23T14:16:48;28.70;45.20
32594;DHT22;19018;49.046;9.140;2022-09-23T14:19:15;28.70;45.10
32594;DHT22;19018;49.046;9.140;2022-09-23T14:21:41;28.60;45.00
32594;DHT22;19018;49.046;9.140;2022-09-23T14:24:14;28.60;45.00
32594;DHT22;19018;49.046;9.140;2022-09-23T14:26:40;28.50;44.90
32594;DHT22;19018;49.046;9.140;2022-09-23T14:29:14;28.50;44.80
32594;DHT22;19018;49.046;9.140;2022-09-23T14:31:41;28.50;44.40
32594;DHT22;19018;49.046;9.140;2022-09-23T14:36:52;28.40;44.80
32594;DHT22;19018;49.046;9.140;2022-09-23T14:39:36;28.30;44.80
32594;DHT22;19018;49.046;9.140;2022-09-23T14:42:02;28.30;44.80
32594;DHT22;19018;49.046;9.140;2022-09-23T14:44:31;28.20;44.80
32594;DHT22;19018;49.046;9.140;2022-09-23T14:46:59;28.20;44.80
32594;DHT22;19018;49.046;9.140;2022-09-23T14:49:25;28.10;44.80
32594;DHT22;19018;49.046;9.140;2022-09-23T14:51:53;28.10;44.80
32594;DHT22;19018;49.046;9.140;2022-09-23T14:54:22;28.00;44.80
32594;DHT22;19018;49.046;9.140;2022-09-23T14:56:52;28.00;44.80
32594;DHT22;19018;49.046;9.140;2022-09-23T14:59:35;27.90;44.90
32594;DHT22;19018;49.046;9.140;2022-09-23T15:02:01;27.90;44.80
32594;DHT22;19018;49.046;9.140;2022-09-23T15:04:28;27.90;44.90
32594;DHT22;19018;49.046;9.140;2022-09-23T15:06:59;27.80;44.80
32594;DHT22;19018;49.046;9.140;2022-09-23T15:09:27;27.80;44.70
32594;DHT22;19018;49.046;9.140;2022-09-23T15:12:03;27.80;44.80
32594;DHT22;19018;49.046;9.140;2022-09-23T15:14:32;27.70;44.60
32594;DHT22;19018;49.046;9.140;2022-09-23T15:16:59;27.60;44.60
32594;DHT22;19018;49.046;9.140;2022-09-23T15:19:32;27.60;44.60
32594;DHT22;19018;49.046;9.140;2022-09-23T15:21:59;27.50;44.50
32594;DHT22;19018;49.046;9.140;2022-09-23T15:24:32;27.50;44.50
32594;DHT22;19018;49.046;9.140;2022-09-23T15:26:58;27.50;44.50
32594;DHT22;19018;49.046;9.140;2022-09-23T15:29:24;27.40;44.40
32594;DHT22;19018;49.046;9.140;2022-09-23T15:31:53;27.40;44.50
32594;DHT22;19018;49.046;9.140;2022-09-23T15:34:19;27.30;44.40
32594;DHT22;19018;49.046;9.140;2022-09-23T15:36:46;27.30;44.50
32594;DHT22;19018;49.046;9.140;2022-09-23T15:39:12;27.20;44.40
32594;DHT22;19018;49.046;9.140;2022-09-23T15:41:38;27.20;44.40
32594;DHT22;19018;49.046;9.140;2022-09-23T15:44:04;27.20;44.40
32594;DHT22;19018;49.046;9.140;2022-09-23T15:46:29;27.10;44.40
32594;DHT22;19018;49.046;9.140;2022-09-23T15:48:59;27.10;44.40
32594;DHT22;19018;49.046;9.140;2022-09-23T15:51:25;27.00;44.20
32594;DHT22;19018;49.046;9.140;2022-09-23T15:53:51;27.00;44.30
32594;DHT22;19018;49.046;9.140;2022-09-23T15:56:19;26.90;44.30
32594;DHT22;19018;49.046;9.140;2022-09-23T16:01:16;26.80;44.40
32594;DHT22;19018;49.046;9.140;2022-09-23T16:03:45;26.70;44.30
32594;DHT22;19018;49.046;9.140;2022-09-23T16:06:10;26.70;44.30
32594;DHT22;19018;49.046;9.140;2022-09-23T16:08:37;26.70;44.40
32594;DHT22;19018;49.046;9.140;2022-09-23T16:11:03;26.60;44.30
32594;DHT22;19018;49.046;9.140;2022-09-23T16:13:30;26.50;44.30
32594;DHT22;19018;49.046;9.140;2022-09-23T16:15:55;26.50;44.30
32594;DHT22;19018;49.046;9.140;2022-09-23T16:18:21;26.40;44.30
32594;DHT22;19018;49.046;9.140;2022-09-23T16:20:46;26.40;44.30
32594;DHT22;19018;49.046;9.140;2022-09-23T16:25:39;26.30;44.40
32594;DHT22;19018;49.046;9.140;2022-09-23T16:28:05;26.30;44.40
32594;DHT22;19018;49.046;9.140;2022-09-23T16:30:31;26.20;44.30
32594;DHT22;19018;49.046;9.140;2022-09-23T16:32:57;26.20;44.40
32594;DHT22;19018;49.046;9.140;2022-09-23T16:35:26;26.10;44.30
32594;DHT22;19018;49.046;9.140;2022-09-23T16:37:52;26.10;44.40
32594;DHT22;19018;49.046;9.140;2022-09-23T16:40:18;26.00;44.30
32594;DHT22;19018;49.046;9.140;2022-09-23T16:42:45;25.90;44.30
32594;DHT22;19018;49.046;9.140;2022-09-23T16:47:41;25.80;44.20
32594;DHT22;19018;49.046;9.140;2022-09-23T16:52:34;25.70;44.10
32594;DHT22;19018;49.046;9.140;2022-09-23T16:55:00;25.60;44.10
32594;DHT22;19018;49.046;9.140;2022-09-23T16:57:25;25.60;44.10
32594;DHT22;19018;49.046;9.140;2022-09-23T16:59:54;25.50;44.10
32594;DHT22;19018;49.046;9.140;2022-09-23T17:02:38;25.50;44.10
32594;DHT22;19018;49.046;9.140;2022-09-23T17:05:22;25.40;44.00
32594;DHT22;19018;49.046;9.140;2022-09-23T17:07:48;25.30;44.00
32594;DHT22;19018;49.046;9.140;2022-09-23T17:10:13;25.30;44.00
32594;DHT22;19018;49.046;9.140;2022-09-23T17:12:43;25.20;44.00
32594;DHT22;19018;49.046;9.140;2022-09-23T17:15:08;25.10;43.90
32594;DHT22;19018;49.046;9.140;2022-09-23T17:17:34;25.10;43.90
32594;DHT22;19018;49.046;9.140;2022-09-23T17:22:29;25.00;43.90
32594;DHT22;19018;49.046;9.140;2022-09-23T17:24:55;24.90;43.90
32594;DHT22;19018;49.046;9.140;2022-09-23T17:27:22;24.80;43.80
32594;DHT22;19018;49.046;9.140;2022-09-23T17:29:49;24.80;43.90
32594;DHT22;19018;49.046;9.140;2022-09-23T17:32:14;24.70;43.80
32594;DHT22;19018;49.046;9.140;2022-09-23T17:34:40;24.70;43.80
32594;DHT22;19018;49.046;9.140;2022-09-23T17:37:07;24.60;43.70
32594;DHT22;19018;49.046;9.140;2022-09-23T17:39:33;24.50;43.70
32594;DHT22;19018;49.046;9.140;2022-09-23T17:44:24;24.40;43.70
32594;DHT22;19018;49.046;9.140;2022-09-23T17:46:50;24.30;43.70
32594;DHT22;19018;49.046;9.140;2022-09-23T17:49:16;24.20;43.60
32594;DHT22;19018;49.046;9.140;2022-09-23T17:51:42;24.20;43.60
32594;DHT22;19018;49.046;9.140;2022-09-23T17:54:08;24.10;43.60
32594;DHT22;19018;49.046;9.140;2022-09-23T17:59:00;24.00;43.60
32594;DHT22;19018;49.046;9.140;2022-09-23T18:01:26;23.90;43.60
32594;DHT22;19018;49.046;9.140;2022-09-23T18:06:19;23.70;43.50
32594;DHT22;19018;49.046;9.140;2022-09-23T18:08:46;23.70;43.60
32594;DHT22;19018;49.046;9.140;2022-09-23T18:13:38;23.50;43.50
32594;DHT22;19018;49.046;9.140;2022-09-23T18:18:29;23.40;43.60
32594;DHT22;19018;49.046;9.140;2022-09-23T18:23:21;23.30;43.60
32594;DHT22;19018;49.046;9.140;2022-09-23T18:25:46;23.20;43.50
32594;DHT22;19018;49.046;9.140;2022-09-23T18:28:12;23.10;43.50
32594;DHT22;19018;49.046;9.140;2022-09-23T18:30:37;23.10;43.50
32594;DHT22;19018;49.046;9.140;2022-09-23T18:33:04;23.00;43.50
32594;DHT22;19018;49.046;9.140;2022-09-23T18:35:30;23.00;43.60
32594;DHT22;19018;49.046;9.140;2022-09-23T18:37:55;22.90;43.60
32594;DHT22;19018;49.046;9.140;2022-09-23T18:40:21;22.80;43.60
32594;DHT22;19018;49.046;9.140;2022-09-23T18:42:46;22.80;43.70
32594;DHT22;19018;49.046;9.140;2022-09-23T18:45:12;22.70;43.70
32594;DHT22;19018;49.046;9.140;2022-09-23T18:47:38;22.60;43.70
32594;DHT22;19018;49.046;9.140;2022-09-23T18:53:08;22.50;43.80
32594;DHT22;19018;49.046;9.140;2022-09-23T18:58:00;22.40;43.80
32594;DHT22;19018;49.046;9.140;2022-09-23T19:02:52;22.30;43.80
32594;DHT22;19018;49.046;9.140;2022-09-23T19:07:43;22.20;43.90
32594;DHT22;19018;49.046;9.140;2022-09-23T19:15:02;22.10;44.00
32594;DHT22;19018;49.046;9.140;2022-09-23T19:17:27;22.00;44.00
32594;DHT22;19018;49.046;9.140;2022-09-23T19:22:20;21.90;44.00
32594;DHT22;19018;49.046;9.140;2022-09-23T19:24:46;21.80;44.00
32594;DHT22;19018;49.046;9.140;2022-09-23T19:27:12;21.80;44.10
32594;DHT22;19018;49.046;9.140;2022-09-23T19:29:37;21.80;44.10
32594;DHT22;19018;49.046;9.140;2022-09-23T19:34:30;21.70;44.20
32594;DHT22;19018;49.046;9.140;2022-09-23T19:36:56;21.70;44.20
32594;DHT22;19018;49.046;9.140;2022-09-23T19:41:49;21.60;44.20
32594;DHT22;19018;49.046;9.140;2022-09-23T19:46:41;21.50;44.30